createdAt,value
2022-12-14T00:00:51.929Z,57.35
2022-12-14T00:01:51.864Z,57.14
2022-12-14T00:02:51.958Z,57.04
2022-12-14T00:03:51.899Z,57.35
2022-12-14T00:04:51.829Z,57.46
2022-12-14T00:05:51.835Z,57.46
2022-12-14T00:06:51.818Z,57.25
2022-12-14T00:07:51.805Z,57.46
2022-12-14T00:08:51.803Z,57.67
2022-12-14T00:09:51.785Z,57.98
2022-12-14T00:10:51.770Z,58.19
2022-12-14T00:11:51.761Z,58.29
2022-12-14T00:12:51.769Z,58.61
2022-12-14T00:13:51.736Z,58.19
2022-12-14T00:14:51.745Z,58.09
2022-12-14T00:15:51.754Z,58.51
2022-12-14T00:16:51.702Z,58.82
2022-12-14T00:17:51.675Z,58.82
2022-12-14T00:18:51.682Z,58.82
2022-12-14T00:19:51.653Z,59.06
2022-12-14T00:20:51.660Z,59.38
2022-12-14T00:21:51.645Z,59.03
2022-12-14T00:22:51.623Z,58.82
2022-12-14T00:23:51.613Z,57.78
2022-12-14T00:24:51.606Z,57.88
2022-12-14T00:25:51.597Z,57.88
2022-12-14T00:26:51.572Z,57.25
2022-12-14T00:27:51.561Z,57.25
2022-12-14T00:28:51.578Z,57.56
2022-12-14T00:29:51.538Z,56.73
2022-12-14T00:30:56.583Z,56.73
2022-12-14T00:31:51.605Z,56.51
2022-12-14T00:32:51.518Z,56.28
2022-12-14T00:33:52.021Z,56.62
2022-12-14T00:34:51.484Z,56.49
2022-12-14T00:35:51.600Z,56.18
2022-12-14T00:36:51.475Z,55.65
2022-12-14T00:37:51.524Z,55.86
2022-12-14T00:38:51.435Z,55.96
2022-12-14T00:39:51.451Z,56.28
2022-12-14T00:40:51.416Z,56.59
2022-12-14T00:41:51.401Z,56.91
2022-12-14T00:42:51.400Z,56.70
2022-12-14T00:43:51.390Z,56.70
2022-12-14T00:44:51.385Z,56.70
2022-12-14T00:45:51.367Z,56.59
2022-12-14T00:46:51.379Z,56.28
2022-12-14T00:47:51.366Z,55.86
2022-12-14T00:48:51.330Z,55.86
2022-12-14T00:49:51.304Z,55.86
2022-12-14T00:50:51.303Z,55.96
2022-12-14T00:51:51.305Z,55.76
2022-12-14T00:52:51.266Z,55.65
2022-12-14T00:53:51.288Z,55.86
2022-12-14T00:54:51.278Z,55.33
2022-12-14T00:55:51.244Z,55.44
2022-12-14T00:56:51.233Z,55.02
2022-12-14T00:57:51.227Z,55.23
2022-12-14T00:58:51.202Z,55.10
2022-12-14T00:59:51.188Z,55.00
2022-12-14T01:00:51.183Z,55.31
2022-12-14T01:01:51.282Z,55.55
2022-12-14T01:02:51.164Z,55.96
2022-12-14T01:03:51.211Z,56.28
2022-12-14T01:04:51.141Z,56.28
2022-12-14T01:05:51.139Z,55.86
2022-12-14T01:06:51.112Z,55.65
2022-12-14T01:07:51.107Z,55.55
2022-12-14T01:08:51.094Z,55.44
2022-12-14T01:09:51.108Z,55.65
2022-12-14T01:10:51.059Z,55.76
2022-12-14T01:11:51.057Z,55.86
2022-12-14T01:12:51.041Z,55.96
2022-12-14T01:13:51.040Z,56.07
2022-12-14T01:14:51.013Z,55.76
2022-12-14T01:15:51.118Z,55.86
2022-12-14T01:16:51.018Z,55.83
2022-12-14T01:17:50.985Z,55.65
2022-12-14T01:18:50.974Z,56.28
2022-12-14T01:19:50.969Z,56.07
2022-12-14T01:20:50.957Z,55.76
2022-12-14T01:21:50.946Z,55.76
2022-12-14T01:22:50.924Z,55.65
2022-12-14T01:23:50.911Z,55.96
2022-12-14T01:24:50.904Z,56.07
2022-12-14T01:25:50.892Z,55.96
2022-12-14T01:26:50.908Z,55.86
2022-12-14T01:27:50.863Z,55.65
2022-12-14T01:28:50.857Z,55.76
2022-12-14T01:29:50.847Z,55.86
2022-12-14T01:30:50.874Z,55.96
2022-12-14T01:31:50.817Z,56.38
2022-12-14T01:32:50.826Z,56.70
2022-12-14T01:33:50.800Z,56.81
2022-12-14T01:34:50.787Z,57.01
2022-12-14T01:35:50.811Z,57.01
2022-12-14T01:36:50.774Z,57.12
2022-12-14T01:37:50.756Z,57.22
2022-12-14T01:38:50.748Z,57.43
2022-12-14T01:39:50.736Z,57.64
2022-12-14T01:40:50.713Z,57.75
2022-12-14T01:41:50.720Z,57.12
2022-12-14T01:42:50.699Z,57.12
2022-12-14T01:43:50.713Z,56.59
2022-12-14T01:44:50.675Z,56.81
2022-12-14T01:45:50.678Z,57.22
2022-12-14T01:46:50.747Z,57.56
2022-12-14T01:47:50.632Z,57.46
2022-12-14T01:48:50.637Z,57.35
2022-12-14T01:49:50.612Z,57.25
2022-12-14T01:50:50.598Z,57.25
2022-12-14T01:51:50.598Z,57.88
2022-12-14T01:52:50.626Z,57.88
2022-12-14T01:53:50.573Z,58.09
2022-12-14T01:54:50.559Z,58.09
2022-12-14T01:55:50.541Z,58.09
2022-12-14T01:56:50.524Z,57.88
2022-12-14T01:57:50.515Z,57.67
2022-12-14T01:58:50.533Z,58.09
2022-12-14T01:59:50.499Z,57.78
2022-12-14T02:00:50.487Z,57.46
2022-12-14T02:01:50.619Z,57.56
2022-12-14T02:02:50.514Z,57.78
2022-12-14T02:03:50.542Z,57.46
2022-12-14T02:04:50.437Z,57.04
2022-12-14T02:05:50.426Z,57.56
2022-12-14T02:06:50.431Z,57.67
2022-12-14T02:07:50.401Z,57.67
2022-12-14T02:08:50.396Z,57.78
2022-12-14T02:09:50.387Z,57.78
2022-12-14T02:10:50.374Z,58.19
2022-12-14T02:11:50.378Z,58.09
2022-12-14T02:12:50.341Z,58.09
2022-12-14T02:13:50.365Z,57.98
2022-12-14T02:14:50.323Z,58.01
2022-12-14T02:15:50.338Z,58.33
2022-12-14T02:16:50.300Z,58.64
2022-12-14T02:17:50.282Z,58.85
2022-12-14T02:18:50.291Z,58.85
2022-12-14T02:19:50.286Z,58.64
2022-12-14T02:20:50.271Z,58.64
2022-12-14T02:21:50.244Z,58.33
2022-12-14T02:22:50.238Z,58.53
2022-12-14T02:23:50.221Z,58.75
2022-12-14T02:24:50.211Z,58.53
2022-12-14T02:25:50.197Z,58.43
2022-12-14T02:26:50.208Z,58.43
2022-12-14T02:27:50.183Z,58.64
2022-12-14T02:28:50.159Z,58.43
2022-12-14T02:29:50.155Z,58.64
2022-12-14T02:30:50.150Z,58.75
2022-12-14T02:31:50.186Z,58.75
2022-12-14T02:32:50.134Z,58.75
2022-12-14T02:33:50.106Z,58.95
2022-12-14T02:34:50.104Z,59.19
2022-12-14T02:35:50.084Z,59.40
2022-12-14T02:36:50.066Z,59.40
2022-12-14T02:37:50.061Z,59.08
2022-12-14T02:38:50.057Z,59.08
2022-12-14T02:39:50.046Z,58.95
2022-12-14T02:40:50.041Z,58.98
2022-12-14T02:41:50.011Z,58.64
2022-12-14T02:42:50.000Z,58.53
2022-12-14T02:43:49.985Z,58.95
2022-12-14T02:44:49.976Z,58.95
2022-12-14T02:45:49.973Z,58.85
2022-12-14T02:46:50.616Z,58.85
2022-12-14T02:47:49.942Z,58.85
2022-12-14T02:48:49.933Z,59.06
2022-12-14T02:49:49.928Z,58.75
2022-12-14T02:50:49.914Z,58.95
2022-12-14T02:51:49.929Z,59.19
2022-12-14T02:52:49.889Z,59.19
2022-12-14T02:53:49.871Z,59.19
2022-12-14T02:54:49.864Z,58.98
2022-12-14T02:55:49.858Z,59.08
2022-12-14T02:56:49.831Z,59.19
2022-12-14T02:57:49.838Z,59.50
2022-12-14T02:58:49.822Z,59.61
2022-12-14T02:59:49.820Z,59.82
2022-12-14T03:00:49.815Z,60.13
2022-12-14T03:01:49.965Z,59.82
2022-12-14T03:02:49.901Z,60.03
2022-12-14T03:03:49.782Z,59.50
2022-12-14T03:04:49.756Z,59.50
2022-12-14T03:05:49.738Z,59.82
2022-12-14T03:06:49.727Z,59.92
2022-12-14T03:07:49.710Z,60.03
2022-12-14T03:08:49.705Z,60.03
2022-12-14T03:09:49.703Z,60.13
2022-12-14T03:10:49.679Z,60.13
2022-12-14T03:11:49.663Z,60.35
2022-12-14T03:12:49.653Z,60.35
2022-12-14T03:13:49.667Z,60.24
2022-12-14T03:14:49.626Z,60.24
2022-12-14T03:15:49.668Z,60.45
2022-12-14T03:16:49.612Z,60.55
2022-12-14T03:17:49.616Z,60.66
2022-12-14T03:18:49.586Z,60.45
2022-12-14T03:19:49.599Z,60.24
2022-12-14T03:20:49.573Z,60.03
2022-12-14T03:21:49.551Z,60.24
2022-12-14T03:22:49.544Z,60.24
2022-12-14T03:23:49.524Z,60.13
2022-12-14T03:24:49.526Z,60.24
2022-12-14T03:25:49.530Z,60.66
2022-12-14T03:26:49.500Z,60.66
2022-12-14T03:27:49.486Z,60.97
2022-12-14T03:28:49.469Z,61.08
2022-12-14T03:29:49.461Z,61.40
2022-12-14T03:31:04.836Z,61.82
2022-12-14T03:31:49.517Z,61.60
2022-12-14T03:32:49.423Z,61.50
2022-12-14T03:33:49.431Z,61.50
2022-12-14T03:34:49.410Z,61.71
2022-12-14T03:35:49.395Z,61.82
2022-12-14T03:36:49.393Z,61.71
2022-12-14T03:37:53.042Z,61.50
2022-12-14T03:38:49.424Z,61.18
2022-12-14T03:39:49.345Z,60.77
2022-12-14T03:40:49.332Z,60.87
2022-12-14T03:41:49.323Z,60.66
2022-12-14T03:42:49.603Z,60.77
2022-12-14T03:43:49.658Z,60.97
2022-12-14T03:44:50.056Z,61.50
2022-12-14T03:45:49.350Z,61.71
2022-12-14T03:46:49.265Z,61.60
2022-12-14T03:47:49.247Z,61.40
2022-12-14T03:48:49.259Z,60.97
2022-12-14T03:49:49.231Z,60.63
2022-12-14T03:50:49.223Z,60.94
2022-12-14T03:51:49.208Z,61.26
2022-12-14T03:52:49.204Z,61.58
2022-12-14T03:53:49.201Z,62.10
2022-12-14T03:56:16.557Z,62.10
2022-12-14T03:56:21.345Z,61.68
2022-12-14T03:57:21.345Z,61.47
2022-12-14T03:58:21.331Z,61.58
2022-12-14T03:59:21.325Z,61.26
2022-12-14T04:00:21.304Z,61.36
2022-12-14T04:01:21.477Z,61.36
2022-12-14T04:02:21.501Z,61.47
2022-12-14T04:03:21.315Z,61.58
2022-12-14T04:04:21.254Z,61.47
2022-12-14T04:05:21.238Z,61.58
2022-12-14T04:06:21.236Z,61.89
2022-12-14T04:07:21.222Z,62.10
2022-12-14T04:08:21.213Z,62.52
2022-12-14T04:09:21.211Z,62.62
2022-12-14T04:10:21.195Z,62.84
2022-12-14T04:11:21.171Z,63.15
2022-12-14T04:12:21.180Z,62.84
2022-12-14T04:13:21.176Z,62.84
2022-12-14T04:14:21.154Z,63.04
2022-12-14T04:15:21.137Z,63.04
2022-12-14T04:16:21.174Z,62.84
2022-12-14T04:17:21.109Z,62.52
2022-12-14T04:18:21.103Z,62.60
2022-12-14T04:19:21.099Z,62.49
2022-12-14T04:20:21.075Z,62.91
2022-12-14T04:21:21.061Z,63.12
2022-12-14T04:22:21.045Z,63.01
2022-12-14T04:23:21.031Z,62.81
2022-12-14T04:24:21.054Z,62.84
2022-12-14T04:25:21.009Z,62.41
2022-12-14T04:26:21.003Z,62.31
2022-12-14T04:27:20.981Z,62.52
2022-12-14T04:28:20.992Z,62.94
2022-12-14T04:29:20.959Z,62.62
2022-12-14T04:30:20.962Z,62.31
2022-12-14T04:31:21.011Z,62.62
2022-12-14T04:32:20.991Z,62.84
2022-12-14T04:33:20.921Z,62.31
2022-12-14T04:34:20.902Z,62.41
2022-12-14T04:35:20.922Z,62.76
2022-12-14T04:36:20.884Z,63.28
2022-12-14T04:37:20.875Z,63.89
2022-12-14T04:38:20.872Z,64.30
2022-12-14T04:39:20.870Z,64.43
2022-12-14T04:40:20.844Z,64.65
2022-12-14T04:41:20.825Z,64.96
2022-12-14T04:42:20.818Z,65.28
2022-12-14T04:43:20.810Z,65.48
2022-12-14T04:44:20.813Z,65.70
2022-12-14T04:45:20.792Z,65.80
2022-12-14T04:46:20.815Z,65.17
2022-12-14T04:47:20.755Z,64.83
2022-12-14T04:48:20.750Z,64.96
2022-12-14T04:49:20.752Z,64.09
2022-12-14T04:50:20.744Z,63.26
2022-12-14T04:51:20.730Z,63.15
2022-12-14T04:52:20.702Z,62.62
2022-12-14T04:53:20.698Z,62.31
2022-12-14T04:54:20.673Z,62.62
2022-12-14T04:55:20.666Z,62.94
2022-12-14T04:56:20.680Z,63.15
2022-12-14T04:57:20.651Z,63.36
2022-12-14T04:58:20.641Z,63.67
2022-12-14T04:59:20.624Z,63.57
2022-12-14T05:00:20.608Z,63.57
2022-12-14T05:01:20.777Z,62.94
2022-12-14T05:02:20.740Z,63.04
2022-12-14T05:03:20.597Z,63.36
2022-12-14T05:04:20.557Z,63.57
2022-12-14T05:05:20.550Z,63.57
2022-12-14T05:06:20.564Z,63.57
2022-12-14T05:07:20.573Z,62.10
2022-12-14T05:08:20.541Z,62.62
2022-12-14T05:09:20.504Z,63.33
2022-12-14T05:10:20.510Z,64.06
2022-12-14T05:11:52.010Z,63.75
2022-12-14T05:12:20.500Z,63.26
2022-12-14T05:13:20.495Z,63.23
2022-12-14T05:14:20.449Z,63.33
2022-12-14T05:15:20.437Z,63.43
2022-12-14T05:16:20.460Z,63.23
2022-12-14T05:17:20.425Z,63.01
2022-12-14T05:18:20.429Z,62.91
2022-12-14T05:19:20.394Z,63.33
2022-12-14T05:20:20.381Z,63.75
2022-12-14T05:21:20.369Z,63.85
2022-12-14T05:22:20.367Z,63.75
2022-12-14T05:23:20.345Z,63.85
2022-12-14T05:24:20.381Z,64.17
2022-12-14T05:25:20.323Z,64.48
2022-12-14T05:26:20.320Z,65.32
2022-12-14T05:27:20.300Z,66.06
2022-12-14T05:28:20.363Z,64.59
2022-12-14T05:29:20.299Z,63.75
2022-12-14T05:30:20.273Z,63.33
2022-12-14T05:31:20.261Z,63.23
2022-12-14T05:32:20.243Z,62.70
2022-12-14T05:33:20.250Z,63.01
2022-12-14T05:34:20.237Z,63.33
2022-12-14T05:35:20.217Z,62.70
2022-12-14T05:36:20.204Z,62.18
2022-12-14T05:37:20.184Z,61.65
2022-12-14T05:38:20.181Z,62.38
2022-12-14T05:39:20.166Z,62.73
2022-12-14T05:40:20.151Z,63.04
2022-12-14T05:41:20.133Z,63.26
2022-12-14T05:42:20.126Z,63.26
2022-12-14T05:43:20.136Z,63.43
2022-12-14T05:44:20.106Z,63.54
2022-12-14T05:45:20.105Z,63.65
2022-12-14T05:46:20.142Z,63.43
2022-12-14T05:47:20.080Z,63.33
2022-12-14T05:48:20.062Z,63.43
2022-12-14T05:49:20.047Z,63.75
2022-12-14T05:50:20.037Z,63.85
2022-12-14T05:51:20.065Z,63.43
2022-12-14T05:52:20.017Z,62.49
2022-12-14T05:53:19.996Z,62.91
2022-12-14T05:54:19.988Z,62.81
2022-12-14T05:55:19.998Z,62.70
2022-12-14T05:56:19.969Z,62.70
2022-12-14T05:57:19.984Z,62.81
2022-12-14T05:58:19.955Z,62.91
2022-12-14T05:59:19.944Z,62.60
2022-12-14T06:00:19.921Z,62.49
2022-12-14T06:01:20.174Z,62.91
2022-12-14T06:02:20.051Z,62.70
2022-12-14T06:03:20.037Z,62.81
2022-12-14T06:04:19.941Z,62.60
2022-12-14T06:05:19.864Z,62.07
2022-12-14T06:06:19.849Z,62.18
2022-12-14T06:07:24.552Z,62.18
2022-12-14T06:08:19.835Z,62.38
2022-12-14T06:09:19.843Z,62.38
2022-12-14T06:10:19.805Z,62.28
2022-12-14T06:11:19.915Z,62.60
2022-12-14T06:12:19.780Z,62.81
2022-12-14T06:13:19.780Z,63.33
2022-12-14T06:14:19.787Z,63.54
2022-12-14T06:15:19.755Z,64.48
2022-12-14T06:16:19.843Z,64.59
2022-12-14T06:17:19.740Z,64.06
2022-12-14T06:18:19.743Z,63.65
2022-12-14T06:19:19.712Z,63.23
2022-12-14T06:20:19.716Z,63.43
2022-12-14T06:21:19.681Z,63.54
2022-12-14T06:22:19.669Z,63.75
2022-12-14T06:23:19.653Z,63.85
2022-12-14T06:24:19.653Z,64.48
2022-12-14T06:25:19.648Z,64.38
2022-12-14T06:26:19.625Z,63.85
2022-12-14T06:27:19.608Z,63.43
2022-12-14T06:28:19.607Z,63.54
2022-12-14T06:29:19.613Z,63.65
2022-12-14T06:30:19.589Z,63.75
2022-12-14T06:31:19.711Z,64.17
2022-12-14T06:32:19.550Z,63.54
2022-12-14T06:33:19.563Z,63.65
2022-12-14T06:34:23.477Z,63.12
2022-12-14T06:35:19.534Z,63.01
2022-12-14T06:36:19.504Z,62.70
2022-12-14T06:37:19.500Z,62.49
2022-12-14T06:38:19.486Z,62.60
2022-12-14T06:39:19.464Z,62.49
2022-12-14T06:40:19.464Z,63.01
2022-12-14T06:41:19.449Z,63.12
2022-12-14T06:42:19.435Z,62.91
2022-12-14T06:43:19.423Z,62.81
2022-12-14T06:44:19.415Z,63.23
2022-12-14T06:45:19.403Z,63.36
2022-12-14T06:46:19.459Z,63.65
2022-12-14T06:47:19.373Z,63.43
2022-12-14T06:48:19.378Z,63.01
2022-12-14T06:49:19.360Z,62.60
2022-12-14T06:50:19.363Z,62.91
2022-12-14T06:51:19.333Z,63.23
2022-12-14T06:52:25.011Z,63.54
2022-12-14T06:53:19.306Z,63.01
2022-12-14T06:54:19.308Z,62.70
2022-12-14T06:55:19.308Z,63.23
2022-12-14T06:56:19.271Z,63.54
2022-12-14T06:57:19.263Z,63.75
2022-12-14T06:58:19.266Z,63.96
2022-12-14T06:59:19.236Z,63.96
2022-12-14T07:00:19.224Z,64.28
2022-12-14T07:01:19.397Z,64.17
2022-12-14T07:02:19.347Z,64.17
2022-12-14T07:03:19.250Z,64.48
2022-12-14T07:04:19.181Z,64.59
2022-12-14T07:05:19.160Z,64.69
2022-12-14T07:06:19.165Z,64.38
2022-12-14T07:07:19.178Z,64.38
2022-12-14T07:08:19.132Z,64.38
2022-12-14T07:09:19.125Z,64.25
2022-12-14T07:10:19.123Z,64.28
2022-12-14T07:11:19.101Z,64.28
2022-12-14T07:12:19.085Z,64.48
2022-12-14T07:13:19.118Z,64.38
2022-12-14T07:14:19.065Z,64.06
2022-12-14T07:15:19.054Z,64.06
2022-12-14T07:16:19.092Z,64.17
2022-12-14T07:17:19.029Z,64.48
2022-12-14T07:18:19.024Z,64.38
2022-12-14T07:19:19.014Z,64.28
2022-12-14T07:20:19.084Z,64.59
2022-12-14T07:21:19.016Z,65.32
2022-12-14T07:22:19.394Z,64.90
2022-12-14T07:23:23.397Z,64.59
2022-12-14T07:24:19.104Z,64.80
2022-12-14T07:25:19.156Z,64.69
2022-12-14T07:26:19.395Z,64.59
2022-12-14T07:27:18.911Z,64.59
2022-12-14T07:28:18.899Z,65.22
2022-12-14T07:29:18.905Z,65.43
2022-12-14T07:30:18.904Z,65.43
2022-12-14T07:31:18.963Z,65.11
2022-12-14T07:32:18.850Z,65.11
2022-12-14T07:33:18.851Z,64.90
2022-12-14T07:34:18.828Z,64.90
2022-12-14T07:35:18.816Z,64.80
2022-12-14T07:36:18.819Z,65.01
2022-12-14T07:37:18.799Z,65.11
2022-12-14T07:38:18.780Z,64.69
2022-12-14T07:39:18.770Z,64.90
2022-12-14T07:40:18.767Z,65.22
2022-12-14T07:41:22.396Z,65.53
2022-12-14T07:42:18.745Z,65.43
2022-12-14T07:43:18.745Z,64.80
2022-12-14T07:44:18.712Z,64.59
2022-12-14T07:45:18.723Z,64.90
2022-12-14T07:46:18.812Z,65.11
2022-12-14T07:47:18.698Z,65.53
2022-12-14T07:48:18.671Z,66.47
2022-12-14T07:49:18.694Z,66.27
2022-12-14T07:50:18.671Z,65.95
2022-12-14T07:51:18.778Z,65.53
2022-12-14T07:52:18.648Z,65.64
2022-12-14T07:53:18.608Z,65.53
2022-12-14T07:54:18.623Z,65.32
2022-12-14T07:55:18.630Z,65.22
2022-12-14T07:56:18.584Z,64.59
2022-12-14T07:57:18.567Z,64.59
2022-12-14T07:58:18.615Z,64.80
2022-12-14T07:59:18.838Z,64.69
2022-12-14T08:00:19.196Z,64.90
2022-12-14T08:01:18.592Z,65.22
2022-12-14T08:02:18.652Z,65.32
2022-12-14T08:03:18.630Z,65.64
2022-12-14T08:04:18.846Z,65.53
2022-12-14T08:05:18.581Z,65.64
2022-12-14T08:06:18.468Z,65.64
2022-12-14T08:07:18.533Z,65.32
2022-12-14T08:08:18.448Z,65.22
2022-12-14T08:09:18.440Z,65.22
2022-12-14T08:10:18.463Z,65.40
2022-12-14T08:11:18.420Z,65.81
2022-12-14T08:12:18.397Z,65.92
2022-12-14T08:13:18.399Z,66.27
2022-12-14T08:14:18.379Z,66.03
2022-12-14T08:15:18.910Z,65.95
2022-12-14T08:16:18.463Z,65.84
2022-12-14T08:17:18.543Z,65.64
2022-12-14T08:18:18.859Z,65.43
2022-12-14T08:19:18.598Z,65.19
2022-12-14T08:20:18.597Z,65.11
2022-12-14T08:21:18.824Z,65.32
2022-12-14T08:22:18.411Z,65.53
2022-12-14T08:23:18.354Z,65.53
2022-12-14T08:24:18.263Z,65.22
2022-12-14T08:25:18.251Z,65.74
2022-12-14T08:26:18.244Z,65.53
2022-12-14T08:27:18.240Z,65.22
2022-12-14T08:28:18.224Z,65.08
2022-12-14T08:29:18.207Z,65.08
2022-12-14T08:30:18.195Z,65.61
2022-12-14T08:31:18.254Z,65.81
2022-12-14T08:32:18.193Z,65.92
2022-12-14T08:33:18.181Z,65.61
2022-12-14T08:34:18.156Z,65.50
2022-12-14T08:35:18.215Z,65.30
2022-12-14T08:36:18.139Z,65.19
2022-12-14T08:37:18.130Z,65.08
2022-12-14T08:38:18.113Z,65.08
2022-12-14T08:39:18.106Z,65.30
2022-12-14T08:40:18.084Z,65.61
2022-12-14T08:41:18.121Z,65.81
2022-12-14T08:42:18.072Z,65.71
2022-12-14T08:43:23.361Z,65.71
2022-12-14T08:44:18.061Z,65.81
2022-12-14T08:45:18.045Z,65.50
2022-12-14T08:46:18.065Z,65.08
2022-12-14T08:47:18.026Z,64.67
2022-12-14T08:48:17.991Z,64.64
2022-12-14T08:49:17.981Z,64.64
2022-12-14T08:50:17.972Z,64.64
2022-12-14T08:51:17.972Z,64.74
2022-12-14T08:52:17.985Z,64.64
2022-12-14T08:53:17.951Z,64.32
2022-12-14T08:54:17.945Z,63.90
2022-12-14T08:55:19.001Z,63.69
2022-12-14T08:56:17.910Z,63.69
2022-12-14T08:57:17.911Z,63.59
2022-12-14T08:58:17.899Z,63.48
2022-12-14T08:59:44.046Z,63.48
2022-12-14T09:00:17.884Z,63.79
2022-12-14T09:01:17.965Z,64.01
2022-12-14T09:02:17.957Z,64.32
2022-12-14T09:03:17.883Z,64.42
2022-12-14T09:04:17.847Z,64.42
2022-12-14T09:05:17.954Z,64.32
2022-12-14T09:06:17.801Z,64.40
2022-12-14T09:07:17.792Z,64.61
2022-12-14T09:08:17.814Z,64.81
2022-12-14T09:09:17.768Z,64.61
2022-12-14T09:10:17.786Z,64.95
2022-12-14T09:11:17.763Z,64.71
2022-12-14T09:12:17.755Z,64.42
2022-12-14T09:13:17.719Z,64.11
2022-12-14T09:14:17.728Z,64.11
2022-12-14T09:15:17.702Z,64.32
2022-12-14T09:16:17.748Z,64.22
2022-12-14T09:17:17.675Z,64.11
2022-12-14T09:18:17.682Z,64.01
2022-12-14T09:19:17.693Z,64.32
2022-12-14T09:20:17.657Z,65.05
2022-12-14T09:21:17.655Z,64.81
2022-12-14T09:22:18.690Z,64.22
2022-12-14T09:23:17.616Z,64.01
2022-12-14T09:24:17.595Z,64.11
2022-12-14T09:25:17.607Z,64.18
2022-12-14T09:26:17.577Z,64.40
2022-12-14T09:27:17.648Z,64.61
2022-12-14T09:28:17.548Z,64.18
2022-12-14T09:29:17.539Z,64.08
2022-12-14T09:30:20.464Z,63.77
2022-12-14T09:31:17.583Z,63.45
2022-12-14T09:32:17.505Z,63.67
2022-12-14T09:33:17.506Z,64.18
2022-12-14T09:34:17.488Z,64.29
2022-12-14T09:35:17.489Z,64.81
2022-12-14T09:36:17.484Z,65.03
2022-12-14T09:37:17.458Z,65.13
2022-12-14T09:38:17.444Z,65.44
2022-12-14T09:39:17.457Z,65.68
2022-12-14T09:40:17.423Z,66.28
2022-12-14T09:41:17.405Z,66.20
2022-12-14T09:42:17.406Z,65.68
2022-12-14T09:43:17.397Z,65.47
2022-12-14T09:44:18.821Z,65.34
2022-12-14T09:45:17.364Z,65.13
2022-12-14T09:46:17.444Z,65.03
2022-12-14T09:47:17.391Z,65.03
2022-12-14T09:48:17.328Z,65.03
2022-12-14T09:49:17.311Z,64.78
2022-12-14T09:50:17.333Z,64.47
2022-12-14T09:51:17.320Z,64.05
2022-12-14T09:52:17.291Z,63.95
2022-12-14T09:53:17.290Z,63.74
2022-12-14T09:54:17.274Z,63.87
2022-12-14T09:55:17.246Z,63.87
2022-12-14T09:56:17.251Z,64.08
2022-12-14T09:57:17.245Z,63.87
2022-12-14T09:58:17.216Z,63.87
2022-12-14T09:59:17.216Z,64.08
2022-12-14T10:00:17.192Z,63.98
2022-12-14T10:01:17.305Z,63.74
2022-12-14T10:02:33.417Z,63.56
2022-12-14T10:03:17.368Z,63.77
2022-12-14T10:04:17.300Z,63.98
2022-12-14T10:05:17.158Z,64.29
2022-12-14T10:06:17.140Z,64.61
2022-12-14T10:07:17.115Z,64.40
2022-12-14T10:08:17.109Z,64.18
2022-12-14T10:09:17.098Z,64.50
2022-12-14T10:10:17.081Z,64.68
2022-12-14T10:11:17.070Z,64.68
2022-12-14T10:12:17.075Z,65.31
2022-12-14T10:13:17.048Z,65.83
2022-12-14T10:14:17.062Z,66.25
2022-12-14T10:15:17.033Z,66.36
2022-12-14T10:16:17.113Z,66.04
2022-12-14T10:17:17.080Z,65.38
2022-12-14T10:18:41.299Z,65.80
2022-12-14T10:19:17.002Z,66.53
2022-12-14T10:20:16.999Z,65.91
2022-12-14T10:21:16.955Z,65.70
2022-12-14T10:22:16.964Z,65.59
2022-12-14T10:23:22.454Z,64.86
2022-12-14T10:24:16.949Z,64.76
2022-12-14T10:25:16.938Z,64.76
2022-12-14T10:26:16.901Z,64.54
2022-12-14T10:27:16.881Z,64.54
2022-12-14T10:28:16.894Z,64.13
2022-12-14T10:29:16.884Z,64.13
2022-12-14T10:30:16.874Z,64.13
2022-12-14T10:31:16.867Z,64.44
2022-12-14T10:32:16.844Z,64.44
2022-12-14T10:33:16.820Z,64.34
2022-12-14T10:34:16.818Z,64.44
2022-12-14T10:35:16.830Z,64.54
2022-12-14T10:36:16.808Z,64.44
2022-12-14T10:37:17.124Z,64.34
2022-12-14T10:38:16.770Z,64.34
2022-12-14T10:39:16.769Z,64.23
2022-12-14T10:40:27.405Z,64.23
2022-12-14T10:41:16.766Z,64.34
2022-12-14T10:42:16.730Z,64.54
2022-12-14T10:43:16.725Z,64.94
2022-12-14T10:44:16.700Z,65.77
2022-12-14T10:45:39.631Z,66.71
2022-12-14T10:46:16.786Z,66.71
2022-12-14T10:47:16.695Z,65.64
2022-12-14T10:48:16.654Z,65.74
2022-12-14T10:49:16.645Z,65.74
2022-12-14T10:50:16.711Z,66.27
2022-12-14T10:51:16.629Z,66.16
2022-12-14T10:52:16.631Z,65.84
2022-12-14T10:53:16.610Z,65.95
2022-12-14T10:54:16.615Z,65.53
2022-12-14T10:55:16.593Z,65.01
2022-12-14T10:56:16.617Z,64.94
2022-12-14T10:57:16.565Z,64.94
2022-12-14T10:58:16.552Z,65.04
2022-12-14T10:59:16.569Z,64.94
2022-12-14T11:00:23.212Z,65.01
2022-12-14T11:01:16.732Z,64.80
2022-12-14T11:02:16.665Z,65.01
2022-12-14T11:03:16.573Z,64.70
2022-12-14T11:04:16.482Z,64.80
2022-12-14T11:05:16.512Z,64.90
2022-12-14T11:06:16.463Z,65.22
2022-12-14T11:07:16.444Z,65.74
2022-12-14T11:08:16.437Z,66.03
2022-12-14T11:09:16.447Z,66.16
2022-12-14T11:10:16.414Z,66.06
2022-12-14T11:11:19.232Z,66.47
2022-12-14T11:12:16.469Z,67.41
2022-12-14T11:13:16.390Z,67.80
2022-12-14T11:14:16.369Z,67.38
2022-12-14T11:15:16.380Z,67.21
2022-12-14T11:16:16.484Z,67.62
2022-12-14T11:17:16.507Z,67.73
2022-12-14T11:18:16.526Z,68.25
2022-12-14T11:19:16.308Z,68.46
2022-12-14T11:20:16.321Z,68.35
2022-12-14T11:21:16.298Z,69.09
2022-12-14T11:22:22.164Z,69.82
2022-12-14T11:23:16.270Z,70.34
2022-12-14T11:24:16.279Z,70.24
2022-12-14T11:25:16.255Z,70.13
2022-12-14T11:26:16.250Z,69.82
2022-12-14T11:27:16.238Z,69.82
2022-12-14T11:28:16.222Z,70.76
2022-12-14T11:29:16.256Z,71.28
2022-12-14T11:30:16.199Z,71.39
2022-12-14T11:31:16.271Z,71.39
2022-12-14T11:32:16.188Z,71.18
2022-12-14T11:33:16.166Z,71.28
2022-12-14T11:34:21.772Z,71.39
2022-12-14T11:35:16.148Z,71.18
2022-12-14T11:36:16.131Z,71.08
2022-12-14T11:37:16.133Z,70.97
2022-12-14T11:38:16.115Z,70.65
2022-12-14T11:39:16.116Z,70.65
2022-12-14T11:40:16.080Z,70.97
2022-12-14T11:41:16.069Z,70.83
2022-12-14T11:42:16.069Z,70.83
2022-12-14T11:43:16.068Z,70.73
2022-12-14T11:44:16.061Z,70.83
2022-12-14T11:45:16.026Z,71.14
2022-12-14T11:46:16.046Z,71.36
2022-12-14T11:47:16.026Z,71.56
2022-12-14T11:48:15.996Z,71.77
2022-12-14T11:49:16.004Z,71.56
2022-12-14T11:50:15.974Z,71.67
2022-12-14T11:51:15.958Z,72.08
2022-12-14T11:52:15.958Z,72.02
2022-12-14T11:53:15.939Z,72.02
2022-12-14T11:54:15.934Z,72.15
2022-12-14T11:55:18.160Z,72.25
2022-12-14T11:56:15.914Z,72.43
2022-12-14T11:57:15.899Z,72.64
2022-12-14T11:58:15.894Z,73.02
2022-12-14T11:59:15.869Z,72.92
2022-12-14T12:00:15.858Z,72.81
2022-12-14T12:01:15.957Z,72.71
2022-12-14T12:02:15.888Z,72.61
2022-12-14T12:03:15.899Z,72.30
2022-12-14T12:04:15.922Z,72.08
2022-12-14T12:05:15.838Z,71.88
2022-12-14T12:06:15.797Z,71.84
2022-12-14T12:07:15.797Z,71.46
2022-12-14T12:08:15.762Z,71.36
2022-12-14T12:09:15.769Z,71.67
2022-12-14T12:10:15.763Z,71.98
2022-12-14T12:11:15.733Z,72.30
2022-12-14T12:12:15.725Z,71.98
2022-12-14T12:13:15.731Z,71.77
2022-12-14T12:14:15.717Z,71.77
2022-12-14T12:15:15.702Z,71.70
2022-12-14T12:16:15.756Z,71.91
2022-12-14T12:17:15.703Z,72.02
2022-12-14T12:18:15.675Z,72.12
2022-12-14T12:19:15.665Z,72.30
2022-12-14T12:20:15.696Z,72.40
2022-12-14T12:21:15.663Z,72.30
2022-12-14T12:22:15.617Z,71.98
2022-12-14T12:23:15.631Z,72.08
2022-12-14T12:24:15.603Z,72.30
2022-12-14T12:25:36.805Z,72.19
2022-12-14T12:26:15.584Z,72.19
2022-12-14T12:27:15.581Z,72.08
2022-12-14T12:28:15.552Z,71.98
2022-12-14T12:29:15.544Z,71.88
2022-12-14T12:30:15.915Z,71.98
2022-12-14T12:31:15.588Z,71.77
2022-12-14T12:32:15.517Z,71.67
2022-12-14T12:33:15.518Z,71.80
2022-12-14T12:34:15.481Z,71.91
2022-12-14T12:35:15.646Z,72.12
2022-12-14T12:36:20.394Z,72.22
2022-12-14T12:37:30.769Z,72.96
2022-12-14T12:38:15.440Z,73.79
2022-12-14T12:39:15.433Z,73.37
2022-12-14T12:40:15.536Z,73.06
2022-12-14T12:41:15.427Z,73.09
2022-12-14T12:42:15.394Z,72.99
2022-12-14T12:43:15.414Z,72.99
2022-12-14T12:44:15.401Z,73.09
2022-12-14T12:45:15.705Z,73.19
2022-12-14T12:46:15.417Z,73.23
2022-12-14T12:47:25.465Z,73.44
2022-12-14T12:48:15.333Z,73.65
2022-12-14T12:49:15.313Z,73.54
2022-12-14T12:50:15.554Z,73.54
2022-12-14T12:51:15.296Z,73.44
2022-12-14T12:52:15.313Z,73.54
2022-12-14T12:53:15.280Z,73.65